sensor_id;sensor_type;location;lat;lon;timestamp;pressure;altitude;pressure_sealevel;temperature;humidity
46638;BME280;32365;46.938;7.390;2022-09-09T06:19:57;95158.75;;;14.04;100.00
46638;BME280;32365;46.938;7.390;2022-09-09T06:22:24;95159.31;;;14.11;100.00
46638;BME280;32365;46.938;7.390;2022-09-09T06:24:50;95158.06;;;14.19;100.00
46638;BME280;32365;46.938;7.390;2022-09-09T06:27:18;95156.50;;;14.18;100.00
46638;BME280;32365;46.938;7.390;2022-09-09T06:29:45;95163.81;;;14.37;100.00
46638;BME280;32365;46.938;7.390;2022-09-09T06:32:11;95154.19;;;14.42;99.95
46638;BME280;32365;46.938;7.390;2022-09-09T06:34:37;95160.50;;;14.57;100.00
46638;BME280;32365;46.938;7.390;2022-09-09T06:37:06;95152.66;;;14.46;99.23
46638;BME280;32365;46.938;7.390;2022-09-09T06:39:33;95152.38;;;14.38;98.16
46638;BME280;32365;46.938;7.390;2022-09-09T06:42:00;95159.97;;;14.60;99.06
46638;BME280;32365;46.938;7.390;2022-09-09T06:44:26;95152.19;;;14.70;97.78
46638;BME280;32365;46.938;7.390;2022-09-09T06:46:53;95154.81;;;14.91;97.29
46638;BME280;32365;46.938;7.390;2022-09-09T06:49:19;95156.38;;;15.18;96.78
46638;BME280;32365;46.938;7.390;2022-09-09T06:51:46;95151.66;;;15.35;94.27
46638;BME280;32365;46.938;7.390;2022-09-09T06:54:13;95160.97;;;15.73;92.61
46638;BME280;32365;46.938;7.390;2022-09-09T06:56:40;95151.31;;;15.83;92.78
46638;BME280;32365;46.938;7.390;2022-09-09T06:59:08;95155.25;;;15.70;92.68
46638;BME280;32365;46.938;7.390;2022-09-09T07:01:35;95152.09;;;15.79;91.57
46638;BME280;32365;46.938;7.390;2022-09-09T07:04:02;95157.63;;;16.38;88.63
46638;BME280;32365;46.938;7.390;2022-09-09T07:06:33;95148.16;;;16.52;89.46
46638;BME280;32365;46.938;7.390;2022-09-09T07:09:00;95146.44;;;16.32;88.32
46638;BME280;32365;46.938;7.390;2022-09-09T07:11:30;95159.41;;;16.48;82.95
46638;BME280;32365;46.938;7.390;2022-09-09T07:13:58;95153.34;;;16.57;83.03
46638;BME280;32365;46.938;7.390;2022-09-09T07:16:25;95157.94;;;16.76;82.20
46638;BME280;32365;46.938;7.390;2022-09-09T07:18:53;95161.59;;;16.75;81.68
46638;BME280;32365;46.938;7.390;2022-09-09T07:21:22;95153.13;;;16.88;81.40
46638;BME280;32365;46.938;7.390;2022-09-09T07:23:49;95158.09;;;16.95;80.42
46638;BME280;32365;46.938;7.390;2022-09-09T07:26:17;95154.91;;;16.58;82.52
46638;BME280;32365;46.938;7.390;2022-09-09T07:28:46;95153.50;;;17.11;80.48
46638;BME280;32365;46.938;7.390;2022-09-09T07:31:13;95155.06;;;17.71;78.83
46638;BME280;32365;46.938;7.390;2022-09-09T07:33:41;95159.47;;;18.43;76.10
46638;BME280;32365;46.938;7.390;2022-09-09T07:36:09;95154.69;;;18.84;74.82
46638;BME280;32365;46.938;7.390;2022-09-09T07:38:39;95150.06;;;20.17;68.95
46638;BME280;32365;46.938;7.390;2022-09-09T07:41:06;95162.47;;;20.39;66.25
46638;BME280;32365;46.938;7.390;2022-09-09T07:43:36;95162.31;;;19.79;67.43
46638;BME280;32365;46.938;7.390;2022-09-09T07:46:04;95165.28;;;18.98;68.49
46638;BME280;32365;46.938;7.390;2022-09-09T07:48:31;95172.34;;;18.21;69.57
46638;BME280;32365;46.938;7.390;2022-09-09T07:51:04;95167.31;;;18.00;71.20
46638;BME280;32365;46.938;7.390;2022-09-09T07:53:32;95172.41;;;17.32;72.21
46638;BME280;32365;46.938;7.390;2022-09-09T07:56:02;95175.84;;;17.28;72.23
46638;BME280;32365;46.938;7.390;2022-09-09T07:58:28;95176.22;;;17.16;74.76
46638;BME280;32365;46.938;7.390;2022-09-09T08:00:55;95179.28;;;16.88;76.39
46638;BME280;32365;46.938;7.390;2022-09-09T08:03:24;95165.72;;;16.81;76.79
46638;BME280;32365;46.938;7.390;2022-09-09T08:05:50;95178.28;;;16.79;77.86
46638;BME280;32365;46.938;7.390;2022-09-09T08:08:17;95189.84;;;16.68;78.28
46638;BME280;32365;46.938;7.390;2022-09-09T08:10:43;95191.72;;;16.62;78.23
46638;BME280;32365;46.938;7.390;2022-09-09T08:13:10;95207.97;;;16.59;78.41
46638;BME280;32365;46.938;7.390;2022-09-09T08:15:38;95206.47;;;16.42;78.73
46638;BME280;32365;46.938;7.390;2022-09-09T08:18:04;95210.34;;;16.45;79.54
46638;BME280;32365;46.938;7.390;2022-09-09T08:20:32;95202.22;;;16.52;79.57
46638;BME280;32365;46.938;7.390;2022-09-09T08:22:59;95216.75;;;16.73;79.07
46638;BME280;32365;46.938;7.390;2022-09-09T08:25:25;95220.66;;;16.76;69.72
46638;BME280;32365;46.938;7.390;2022-09-09T08:27:52;95214.13;;;17.18;69.54
46638;BME280;32365;46.938;7.390;2022-09-09T08:30:19;95212.75;;;19.15;63.51
46638;BME280;32365;46.938;7.390;2022-09-09T08:32:45;95209.41;;;20.96;57.49
46638;BME280;32365;46.938;7.390;2022-09-09T08:35:12;95208.94;;;22.03;54.65
46638;BME280;32365;46.938;7.390;2022-09-09T08:37:39;95209.56;;;21.99;53.74
46638;BME280;32365;46.938;7.390;2022-09-09T08:40:07;95212.06;;;21.73;54.48
46638;BME280;32365;46.938;7.390;2022-09-09T08:42:38;95216.56;;;20.68;57.42
46638;BME280;32365;46.938;7.390;2022-09-09T08:45:21;95219.81;;;19.81;60.26
46638;BME280;32365;46.938;7.390;2022-09-09T08:48:02;95217.88;;;19.40;62.57
46638;BME280;32365;46.938;7.390;2022-09-09T08:50:34;95214.72;;;18.66;65.50
46638;BME280;32365;46.938;7.390;2022-09-09T08:53:04;95223.75;;;18.36;65.41
46638;BME280;32365;46.938;7.390;2022-09-09T08:55:37;95230.31;;;17.84;64.58
46638;BME280;32365;46.938;7.390;2022-09-09T08:58:06;95222.66;;;18.18;64.04
46638;BME280;32365;46.938;7.390;2022-09-09T09:00:37;95223.97;;;19.54;60.50
46638;BME280;32365;46.938;7.390;2022-09-09T09:03:10;95222.34;;;21.52;54.86
46638;BME280;32365;46.938;7.390;2022-09-09T09:05:44;95220.91;;;22.67;49.15
46638;BME280;32365;46.938;7.390;2022-09-09T09:08:15;95222.94;;;24.05;47.09
46638;BME280;32365;46.938;7.390;2022-09-09T09:10:45;95216.75;;;24.01;46.43
46638;BME280;32365;46.938;7.390;2022-09-09T09:13:17;95225.53;;;22.52;48.47
46638;BME280;32365;46.938;7.390;2022-09-09T09:15:46;95214.59;;;22.19;49.80
46638;BME280;32365;46.938;7.390;2022-09-09T09:18:14;95221.97;;;20.63;54.89
46638;BME280;32365;46.938;7.390;2022-09-09T09:20:44;95218.31;;;19.94;57.96
46638;BME280;32365;46.938;7.390;2022-09-09T09:23:19;95221.16;;;20.62;55.07
46638;BME280;32365;46.938;7.390;2022-09-09T09:25:47;95228.38;;;20.84;54.41
46638;BME280;32365;46.938;7.390;2022-09-09T09:28:17;95227.31;;;21.31;51.83
46638;BME280;32365;46.938;7.390;2022-09-09T09:30:44;95226.78;;;22.06;50.15
46638;BME280;32365;46.938;7.390;2022-09-09T09:33:14;95223.09;;;23.09;48.48
46638;BME280;32365;46.938;7.390;2022-09-09T09:35:44;95227.63;;;23.26;45.96
46638;BME280;32365;46.938;7.390;2022-09-09T09:38:13;95218.09;;;22.54;47.89
46638;BME280;32365;46.938;7.390;2022-09-09T09:40:49;95225.50;;;21.94;49.51
46638;BME280;32365;46.938;7.390;2022-09-09T09:43:18;95228.66;;;20.69;52.97
46638;BME280;32365;46.938;7.390;2022-09-09T09:45:46;95231.94;;;20.38;53.78
46638;BME280;32365;46.938;7.390;2022-09-09T09:48:13;95223.72;;;20.53;54.56
46638;BME280;32365;46.938;7.390;2022-09-09T09:50:46;95222.59;;;22.45;49.84
46638;BME280;32365;46.938;7.390;2022-09-09T09:53:16;95213.50;;;22.78;49.40
46638;BME280;32365;46.938;7.390;2022-09-09T09:55:47;95215.78;;;23.05;48.88
46638;BME280;32365;46.938;7.390;2022-09-09T09:58:17;95211.22;;;24.45;43.90
46638;BME280;32365;46.938;7.390;2022-09-09T10:00:47;95208.94;;;23.40;45.97
46638;BME280;32365;46.938;7.390;2022-09-09T10:03:18;95207.25;;;22.07;49.88
46638;BME280;32365;46.938;7.390;2022-09-09T10:05:47;95214.81;;;20.91;52.55
46638;BME280;32365;46.938;7.390;2022-09-09T10:08:14;95207.09;;;20.16;53.91
46638;BME280;32365;46.938;7.390;2022-09-09T10:10:47;95205.81;;;19.38;56.72
46638;BME280;32365;46.938;7.390;2022-09-09T10:13:20;95203.66;;;18.88;59.41
46638;BME280;32365;46.938;7.390;2022-09-09T10:15:54;95204.66;;;18.54;60.20
46638;BME280;32365;46.938;7.390;2022-09-09T10:21:12;95199.56;;;18.63;58.33
46638;BME280;32365;46.938;7.390;2022-09-09T10:23:46;95206.69;;;18.38;59.54
46638;BME280;32365;46.938;7.390;2022-09-09T10:26:26;95200.72;;;18.57;59.69
46638;BME280;32365;46.938;7.390;2022-09-09T10:31:45;95203.41;;;19.56;57.81
46638;BME280;32365;46.938;7.390;2022-09-09T10:34:22;95193.34;;;22.24;51.26
46638;BME280;32365;46.938;7.390;2022-09-09T10:36:53;95198.97;;;25.25;43.74
46638;BME280;32365;46.938;7.390;2022-09-09T10:39:25;95189.75;;;26.39;40.34
46638;BME280;32365;46.938;7.390;2022-09-09T10:41:59;95176.53;;;27.25;37.52
46638;BME280;32365;46.938;7.390;2022-09-09T10:44:33;95181.06;;;28.01;35.57
46638;BME280;32365;46.938;7.390;2022-09-09T10:50:02;95181.09;;;25.80;38.85
46638;BME280;32365;46.938;7.390;2022-09-09T10:52:32;95174.47;;;24.73;41.44
46638;BME280;32365;46.938;7.390;2022-09-09T10:55:02;95180.09;;;22.64;44.85
46638;BME280;32365;46.938;7.390;2022-09-09T10:57:35;95180.13;;;22.06;47.06
46638;BME280;32365;46.938;7.390;2022-09-09T11:00:04;95172.84;;;21.40;48.36
46638;BME280;32365;46.938;7.390;2022-09-09T11:02:32;95171.63;;;21.15;49.13
46638;BME280;32365;46.938;7.390;2022-09-09T11:05:01;95175.22;;;22.31;47.17
46638;BME280;32365;46.938;7.390;2022-09-09T11:07:31;95167.94;;;23.51;44.00
46638;BME280;32365;46.938;7.390;2022-09-09T11:10:01;95166.00;;;22.78;44.29
46638;BME280;32365;46.938;7.390;2022-09-09T11:12:28;95164.28;;;22.73;44.75
46638;BME280;32365;46.938;7.390;2022-09-09T11:14:57;95168.03;;;21.65;46.20
46638;BME280;32365;46.938;7.390;2022-09-09T11:17:26;95164.00;;;21.36;48.44
46638;BME280;32365;46.938;7.390;2022-09-09T11:19:54;95167.03;;;20.98;48.17
46638;BME280;32365;46.938;7.390;2022-09-09T11:22:30;95162.75;;;20.51;50.14
46638;BME280;32365;46.938;7.390;2022-09-09T11:24:59;95163.34;;;20.48;49.97
46638;BME280;32365;46.938;7.390;2022-09-09T11:27:28;95167.84;;;20.34;50.02
46638;BME280;32365;46.938;7.390;2022-09-09T11:30:04;95168.50;;;20.53;49.29
46638;BME280;32365;46.938;7.390;2022-09-09T11:32:52;95163.84;;;20.87;49.78
46638;BME280;32365;46.938;7.390;2022-09-09T11:35:23;95165.63;;;20.78;47.78
46638;BME280;32365;46.938;7.390;2022-09-09T11:37:57;95159.72;;;20.58;48.71
46638;BME280;32365;46.938;7.390;2022-09-09T11:40:28;95160.28;;;20.32;50.11
46638;BME280;32365;46.938;7.390;2022-09-09T11:43:03;95163.41;;;20.20;50.49
46638;BME280;32365;46.938;7.390;2022-09-09T11:45:31;95158.00;;;20.90;49.11
46638;BME280;32365;46.938;7.390;2022-09-09T11:48:00;95154.97;;;21.91;47.39
46638;BME280;32365;46.938;7.390;2022-09-09T11:50:28;95156.69;;;22.05;44.98
46638;BME280;32365;46.938;7.390;2022-09-09T11:53:04;95149.69;;;22.75;45.24
46638;BME280;32365;46.938;7.390;2022-09-09T11:55:32;95151.28;;;23.89;40.09
46638;BME280;32365;46.938;7.390;2022-09-09T11:57:59;95152.66;;;24.25;40.82
46638;BME280;32365;46.938;7.390;2022-09-09T12:00:34;95154.00;;;24.40;38.31
46638;BME280;32365;46.938;7.390;2022-09-09T12:03:02;95146.78;;;25.38;34.56
46638;BME280;32365;46.938;7.390;2022-09-09T12:05:35;95158.09;;;27.32;32.16
46638;BME280;32365;46.938;7.390;2022-09-09T12:08:04;95145.22;;;28.30;31.07
46638;BME280;32365;46.938;7.390;2022-09-09T12:10:32;95151.25;;;28.27;30.99
46638;BME280;32365;46.938;7.390;2022-09-09T12:13:07;95151.63;;;29.24;29.54
46638;BME280;32365;46.938;7.390;2022-09-09T12:15:34;95163.81;;;27.02;32.04
46638;BME280;32365;46.938;7.390;2022-09-09T12:18:00;95151.50;;;26.03;30.55
46638;BME280;32365;46.938;7.390;2022-09-09T12:20:31;95156.81;;;24.35;32.20
46638;BME280;32365;46.938;7.390;2022-09-09T12:23:01;95151.50;;;23.10;35.15
46638;BME280;32365;46.938;7.390;2022-09-09T12:25:35;95151.09;;;22.64;35.73
46638;BME280;32365;46.938;7.390;2022-09-09T12:28:06;95152.31;;;23.19;36.20
46638;BME280;32365;46.938;7.390;2022-09-09T12:30:37;95149.19;;;23.09;36.08
46638;BME280;32365;46.938;7.390;2022-09-09T12:33:08;95156.84;;;23.58;35.85
46638;BME280;32365;46.938;7.390;2022-09-09T12:35:36;95161.59;;;24.12;35.53
46638;BME280;32365;46.938;7.390;2022-09-09T12:38:04;95164.94;;;24.51;35.29
46638;BME280;32365;46.938;7.390;2022-09-09T12:40:32;95164.88;;;24.39;35.39
46638;BME280;32365;46.938;7.390;2022-09-09T12:43:01;95166.84;;;26.22;31.91
46638;BME280;32365;46.938;7.390;2022-09-09T12:45:29;95157.88;;;27.37;30.08
46638;BME280;32365;46.938;7.390;2022-09-09T12:47:57;95153.78;;;27.88;30.16
46638;BME280;32365;46.938;7.390;2022-09-09T12:50:26;95147.56;;;28.32;29.96
46638;BME280;32365;46.938;7.390;2022-09-09T12:52:54;95140.22;;;28.09;29.75
46638;BME280;32365;46.938;7.390;2022-09-09T12:55:23;95142.88;;;28.64;30.49
46638;BME280;32365;46.938;7.390;2022-09-09T12:57:50;95139.69;;;28.03;28.59
46638;BME280;32365;46.938;7.390;2022-09-09T13:00:19;95149.41;;;28.11;26.94
46638;BME280;32365;46.938;7.390;2022-09-09T13:02:49;95149.25;;;29.18;27.16
46638;BME280;32365;46.938;7.390;2022-09-09T13:05:17;95136.88;;;28.87;30.36
46638;BME280;32365;46.938;7.390;2022-09-09T13:07:44;95135.81;;;28.52;28.89
46638;BME280;32365;46.938;7.390;2022-09-09T13:10:12;95127.53;;;28.38;29.44
46638;BME280;32365;46.938;7.390;2022-09-09T13:12:39;95138.66;;;27.92;30.52
46638;BME280;32365;46.938;7.390;2022-09-09T13:15:10;95137.38;;;28.02;31.63
46638;BME280;32365;46.938;7.390;2022-09-09T13:17:41;95134.88;;;28.45;29.50
46638;BME280;32365;46.938;7.390;2022-09-09T13:20:16;95139.41;;;29.42;29.62
46638;BME280;32365;46.938;7.390;2022-09-09T13:22:42;95141.72;;;29.44;30.71
46638;BME280;32365;46.938;7.390;2022-09-09T13:25:17;95138.28;;;28.81;28.87
46638;BME280;32365;46.938;7.390;2022-09-09T13:27:51;95138.06;;;27.34;31.49
46638;BME280;32365;46.938;7.390;2022-09-09T13:30:19;95152.59;;;25.90;33.53
46638;BME280;32365;46.938;7.390;2022-09-09T13:32:49;95148.28;;;25.27;36.15
46638;BME280;32365;46.938;7.390;2022-09-09T13:35:26;95147.59;;;24.41;36.66
46638;BME280;32365;46.938;7.390;2022-09-09T13:37:53;95153.03;;;24.15;37.56
46638;BME280;32365;46.938;7.390;2022-09-09T13:40:20;95146.69;;;23.39;40.46
46638;BME280;32365;46.938;7.390;2022-09-09T13:42:50;95153.47;;;25.81;35.53
46638;BME280;32365;46.938;7.390;2022-09-09T13:45:18;95156.53;;;25.59;36.20
46638;BME280;32365;46.938;7.390;2022-09-09T13:47:46;95144.56;;;24.73;37.71
46638;BME280;32365;46.938;7.390;2022-09-09T13:50:22;95157.69;;;24.18;38.28
46638;BME280;32365;46.938;7.390;2022-09-09T13:52:48;95150.88;;;23.13;39.16
46638;BME280;32365;46.938;7.390;2022-09-09T13:55:16;95155.50;;;23.43;38.05
46638;BME280;32365;46.938;7.390;2022-09-09T13:57:50;95144.22;;;22.81;39.41
46638;BME280;32365;46.938;7.390;2022-09-09T14:00:16;95148.13;;;22.74;41.30
46638;BME280;32365;46.938;7.390;2022-09-09T14:02:43;95144.09;;;22.95;40.79
46638;BME280;32365;46.938;7.390;2022-09-09T14:05:10;95142.34;;;23.73;39.74
46638;BME280;32365;46.938;7.390;2022-09-09T14:07:38;95134.66;;;23.97;37.82
46638;BME280;32365;46.938;7.390;2022-09-09T14:10:07;95146.25;;;23.01;40.07
46638;BME280;32365;46.938;7.390;2022-09-09T14:12:33;95135.25;;;22.55;41.37
46638;BME280;32365;46.938;7.390;2022-09-09T14:15:01;95138.25;;;24.65;37.59
46638;BME280;32365;46.938;7.390;2022-09-09T14:17:27;95135.16;;;25.89;33.61
46638;BME280;32365;46.938;7.390;2022-09-09T14:19:56;95129.47;;;26.81;33.25
46638;BME280;32365;46.938;7.390;2022-09-09T14:22:22;95132.28;;;27.45;30.89
46638;BME280;32365;46.938;7.390;2022-09-09T14:24:51;95133.16;;;27.20;31.23
46638;BME280;32365;46.938;7.390;2022-09-09T14:27:18;95125.53;;;27.35;32.07
46638;BME280;32365;46.938;7.390;2022-09-09T14:29:44;95130.53;;;28.36;29.95
46638;BME280;32365;46.938;7.390;2022-09-09T14:32:11;95126.63;;;29.09;28.03
46638;BME280;32365;46.938;7.390;2022-09-09T14:34:37;95137.94;;;28.27;28.80
46638;BME280;32365;46.938;7.390;2022-09-09T14:37:04;95126.84;;;29.00;27.24
46638;BME280;32365;46.938;7.390;2022-09-09T14:39:31;95137.34;;;29.12;28.45
46638;BME280;32365;46.938;7.390;2022-09-09T14:41:59;95130.84;;;28.90;28.28
46638;BME280;32365;46.938;7.390;2022-09-09T14:44:25;95129.91;;;28.63;28.56
46638;BME280;32365;46.938;7.390;2022-09-09T14:46:52;95129.97;;;27.59;29.13
46638;BME280;32365;46.938;7.390;2022-09-09T14:49:19;95134.28;;;25.39;33.19
46638;BME280;32365;46.938;7.390;2022-09-09T14:51:45;95143.50;;;25.41;33.24
46638;BME280;32365;46.938;7.390;2022-09-09T14:54:12;95134.28;;;24.50;33.94
46638;BME280;32365;46.938;7.390;2022-09-09T14:56:39;95132.81;;;26.12;32.47
46638;BME280;32365;46.938;7.390;2022-09-09T14:59:07;95130.41;;;27.17;31.24
46638;BME280;32365;46.938;7.390;2022-09-09T15:01:34;95134.22;;;27.96;30.05
46638;BME280;32365;46.938;7.390;2022-09-09T15:04:01;95144.59;;;27.85;30.03
46638;BME280;32365;46.938;7.390;2022-09-09T15:06:28;95142.34;;;28.03;29.06
46638;BME280;32365;46.938;7.390;2022-09-09T15:08:55;95136.78;;;27.44;30.69
46638;BME280;32365;46.938;7.390;2022-09-09T15:11:23;95143.06;;;27.52;31.59
46638;BME280;32365;46.938;7.390;2022-09-09T15:13:50;95146.59;;;27.12;30.52
46638;BME280;32365;46.938;7.390;2022-09-09T15:16:21;95147.47;;;27.16;30.77
46638;BME280;32365;46.938;7.390;2022-09-09T15:18:50;95151.81;;;27.69;30.28
46638;BME280;32365;46.938;7.390;2022-09-09T15:21:18;95146.78;;;26.62;33.88
46638;BME280;32365;46.938;7.390;2022-09-09T15:23:45;95151.59;;;25.82;33.99
46638;BME280;32365;46.938;7.390;2022-09-09T15:26:12;95157.06;;;25.06;36.41
46638;BME280;32365;46.938;7.390;2022-09-09T15:28:39;95157.34;;;24.50;36.63
46638;BME280;32365;46.938;7.390;2022-09-09T15:31:07;95157.50;;;23.93;38.12
46638;BME280;32365;46.938;7.390;2022-09-09T15:33:35;95156.84;;;23.58;40.54
46638;BME280;32365;46.938;7.390;2022-09-09T15:36:11;95153.84;;;23.03;40.76
46638;BME280;32365;46.938;7.390;2022-09-09T15:38:38;95153.25;;;22.62;41.71
46638;BME280;32365;46.938;7.390;2022-09-09T15:41:04;95151.13;;;22.15;42.53
46638;BME280;32365;46.938;7.390;2022-09-09T15:43:31;95152.25;;;21.65;44.29
46638;BME280;32365;46.938;7.390;2022-09-09T15:46:00;95160.41;;;21.32;44.58
46638;BME280;32365;46.938;7.390;2022-09-09T15:48:34;95160.31;;;20.91;45.80
46638;BME280;32365;46.938;7.390;2022-09-09T15:51:01;95166.88;;;20.80;46.95
46638;BME280;32365;46.938;7.390;2022-09-09T15:53:28;95166.88;;;20.80;46.03
46638;BME280;32365;46.938;7.390;2022-09-09T15:55:55;95170.19;;;20.35;48.17
46638;BME280;32365;46.938;7.390;2022-09-09T15:58:21;95175.34;;;20.40;48.89
46638;BME280;32365;46.938;7.390;2022-09-09T16:00:48;95165.06;;;20.30;47.50
46638;BME280;32365;46.938;7.390;2022-09-09T16:03:14;95177.31;;;20.35;46.92
46638;BME280;32365;46.938;7.390;2022-09-09T16:05:42;95174.13;;;20.10;48.38
46638;BME280;32365;46.938;7.390;2022-09-09T16:08:08;95166.28;;;19.63;48.75
46638;BME280;32365;46.938;7.390;2022-09-09T16:10:35;95179.34;;;19.68;48.83
46638;BME280;32365;46.938;7.390;2022-09-09T16:13:01;95175.34;;;19.57;49.70
46638;BME280;32365;46.938;7.390;2022-09-09T16:15:28;95185.91;;;19.51;49.96
46638;BME280;32365;46.938;7.390;2022-09-09T16:17:55;95187.19;;;19.54;50.12
46638;BME280;32365;46.938;7.390;2022-09-09T16:20:22;95187.72;;;19.37;50.08
46638;BME280;32365;46.938;7.390;2022-09-09T16:22:49;95196.44;;;19.18;50.18
46638;BME280;32365;46.938;7.390;2022-09-09T16:25:16;95221.78;;;19.09;50.37
46638;BME280;32365;46.938;7.390;2022-09-09T16:27:43;95232.66;;;18.78;50.23
46638;BME280;32365;46.938;7.390;2022-09-09T16:30:11;95237.63;;;18.60;51.51
46638;BME280;32365;46.938;7.390;2022-09-09T16:32:37;95239.41;;;18.41;53.13
46638;BME280;32365;46.938;7.390;2022-09-09T16:35:04;95242.34;;;18.15;54.73
46638;BME280;32365;46.938;7.390;2022-09-09T16:37:31;95253.09;;;18.13;55.60
46638;BME280;32365;46.938;7.390;2022-09-09T16:40:00;95260.00;;;18.04;57.43
46638;BME280;32365;46.938;7.390;2022-09-09T16:42:28;95257.09;;;17.76;58.92
46638;BME280;32365;46.938;7.390;2022-09-09T16:44:54;95254.75;;;17.45;61.29
46638;BME280;32365;46.938;7.390;2022-09-09T16:47:21;95254.47;;;17.47;61.42
46638;BME280;32365;46.938;7.390;2022-09-09T16:49:47;95247.72;;;17.41;62.17
46638;BME280;32365;46.938;7.390;2022-09-09T16:52:14;95251.69;;;17.33;63.04
46638;BME280;32365;46.938;7.390;2022-09-09T16:54:40;95254.94;;;17.19;63.45
46638;BME280;32365;46.938;7.390;2022-09-09T16:57:08;95251.63;;;17.03;63.98
46638;BME280;32365;46.938;7.390;2022-09-09T16:59:35;95245.47;;;16.84;65.76
46638;BME280;32365;46.938;7.390;2022-09-09T17:02:02;95244.34;;;17.00;65.30
46638;BME280;32365;46.938;7.390;2022-09-09T17:04:30;95258.78;;;16.87;65.87
46638;BME280;32365;46.938;7.390;2022-09-09T17:06:57;95259.31;;;16.79;65.88
46638;BME280;32365;46.938;7.390;2022-09-09T17:09:25;95255.72;;;16.70;66.06
46638;BME280;32365;46.938;7.390;2022-09-09T17:11:54;95260.13;;;16.74;66.33
46638;BME280;32365;46.938;7.390;2022-09-09T17:14:22;95251.69;;;16.38;67.90
46638;BME280;32365;46.938;7.390;2022-09-09T17:16:48;95258.38;;;16.65;66.33
46638;BME280;32365;46.938;7.390;2022-09-09T17:19:15;95259.25;;;16.39;67.48
46638;BME280;32365;46.938;7.390;2022-09-09T17:21:41;95251.97;;;16.26;68.21
46638;BME280;32365;46.938;7.390;2022-09-09T17:24:08;95259.59;;;16.17;68.77
46638;BME280;32365;46.938;7.390;2022-09-09T17:26:35;95258.78;;;16.22;69.10
46638;BME280;32365;46.938;7.390;2022-09-09T17:29:03;95259.75;;;16.36;68.14
46638;BME280;32365;46.938;7.390;2022-09-09T17:31:32;95254.28;;;16.38;68.83
46638;BME280;32365;46.938;7.390;2022-09-09T17:33:59;95257.16;;;16.41;68.98
46638;BME280;32365;46.938;7.390;2022-09-09T17:36:27;95256.91;;;16.38;69.52
46638;BME280;32365;46.938;7.390;2022-09-09T17:38:54;95254.28;;;16.33;68.68
46638;BME280;32365;46.938;7.390;2022-09-09T17:41:21;95262.69;;;16.29;70.34
46638;BME280;32365;46.938;7.390;2022-09-09T17:43:48;95263.94;;;16.42;69.20
46638;BME280;32365;46.938;7.390;2022-09-09T17:46:16;95261.59;;;16.41;68.26
46638;BME280;32365;46.938;7.390;2022-09-09T17:48:46;95266.81;;;16.41;69.58
46638;BME280;32365;46.938;7.390;2022-09-09T17:51:13;95274.09;;;16.44;69.31
46638;BME280;32365;46.938;7.390;2022-09-09T17:53:41;95276.75;;;16.39;69.55
46638;BME280;32365;46.938;7.390;2022-09-09T17:56:09;95278.66;;;16.02;71.88
46638;BME280;32365;46.938;7.390;2022-09-09T17:58:36;95273.41;;;16.23;69.06
46638;BME280;32365;46.938;7.390;2022-09-09T18:01:03;95282.06;;;16.03;70.47
46638;BME280;32365;46.938;7.390;2022-09-09T18:03:30;95284.44;;;15.73;72.85
46638;BME280;32365;46.938;7.390;2022-09-09T18:06:02;95286.50;;;15.76;74.24
46638;BME280;32365;46.938;7.390;2022-09-09T18:08:29;95276.34;;;15.69;74.32
46638;BME280;32365;46.938;7.390;2022-09-09T18:10:56;95277.66;;;15.57;75.00
46638;BME280;32365;46.938;7.390;2022-09-09T18:13:22;95289.13;;;15.50;75.40
46638;BME280;32365;46.938;7.390;2022-09-09T18:15:48;95282.88;;;15.57;75.16
46638;BME280;32365;46.938;7.390;2022-09-09T18:18:15;95289.66;;;15.83;73.03
46638;BME280;32365;46.938;7.390;2022-09-09T18:20:41;95293.56;;;15.86;73.25
46638;BME280;32365;46.938;7.390;2022-09-09T18:23:10;95303.47;;;15.99;73.40
46638;BME280;32365;46.938;7.390;2022-09-09T18:25:36;95305.06;;;16.00;71.68
46638;BME280;32365;46.938;7.390;2022-09-09T18:28:03;95306.34;;;16.03;72.26
46638;BME280;32365;46.938;7.390;2022-09-09T18:30:29;95308.16;;;16.08;72.21
46638;BME280;32365;46.938;7.390;2022-09-09T18:32:56;95309.47;;;16.05;72.29
46638;BME280;32365;46.938;7.390;2022-09-09T18:35:22;95324.34;;;16.10;72.05
46638;BME280;32365;46.938;7.390;2022-09-09T18:37:49;95323.56;;;16.04;71.98
46638;BME280;32365;46.938;7.390;2022-09-09T18:40:17;95325.94;;;16.00;71.08
46638;BME280;32365;46.938;7.390;2022-09-09T18:42:45;95330.63;;;15.98;71.19
46638;BME280;32365;46.938;7.390;2022-09-09T18:45:11;95328.28;;;16.02;72.14
46638;BME280;32365;46.938;7.390;2022-09-09T18:47:38;95332.97;;;16.00;74.32
46638;BME280;32365;46.938;7.390;2022-09-09T18:50:04;95329.06;;;15.97;75.11
46638;BME280;32365;46.938;7.390;2022-09-09T18:52:31;95331.13;;;16.06;75.31
46638;BME280;32365;46.938;7.390;2022-09-09T18:54:57;95334.28;;;15.97;74.90
46638;BME280;32365;46.938;7.390;2022-09-09T18:57:25;95338.22;;;15.95;74.12
46638;BME280;32365;46.938;7.390;2022-09-09T18:59:52;95336.09;;;16.02;73.27
46638;BME280;32365;46.938;7.390;2022-09-09T19:02:19;95348.91;;;16.04;74.49
46638;BME280;32365;46.938;7.390;2022-09-09T19:04:46;95355.44;;;15.91;75.79
46638;BME280;32365;46.938;7.390;2022-09-09T19:07:14;95354.09;;;15.83;75.15
46638;BME280;32365;46.938;7.390;2022-09-09T19:09:43;95361.44;;;15.86;75.71
46638;BME280;32365;46.938;7.390;2022-09-09T19:12:10;95366.38;;;15.82;76.25
46638;BME280;32365;46.938;7.390;2022-09-09T19:14:37;95373.72;;;15.85;76.34
46638;BME280;32365;46.938;7.390;2022-09-09T19:17:04;95384.41;;;15.79;76.79
46638;BME280;32365;46.938;7.390;2022-09-09T19:19:32;95397.97;;;15.81;76.92
46638;BME280;32365;46.938;7.390;2022-09-09T19:21:58;95411.03;;;15.86;77.91
46638;BME280;32365;46.938;7.390;2022-09-09T19:24:26;95432.66;;;15.76;78.56
46638;BME280;32365;46.938;7.390;2022-09-09T19:26:54;95480.91;;;15.58;79.37
46638;BME280;32365;46.938;7.390;2022-09-09T19:29:22;95483.78;;;14.98;83.91
46638;BME280;32365;46.938;7.390;2022-09-09T19:31:51;95477.63;;;14.39;84.73
46638;BME280;32365;46.938;7.390;2022-09-09T19:34:19;95483.53;;;13.97;86.80